sensor_id;sensor_type;location;lat;lon;timestamp;P1;durP1;ratioP1;P2;durP2;ratioP2
7142;SDS011;3613;48.902;9.204;2023-04-03T00:01:36;4.73;;;3.00;;
7142;SDS011;3613;48.902;9.204;2023-04-03T00:04:05;3.40;;;3.00;;
7142;SDS011;3613;48.902;9.204;2023-04-03T00:06:31;4.03;;;3.20;;
7142;SDS011;3613;48.902;9.204;2023-04-03T00:08:57;4.27;;;2.90;;
7142;SDS011;3613;48.902;9.204;2023-04-03T00:11:25;4.70;;;2.60;;
7142;SDS011;3613;48.902;9.204;2023-04-03T00:13:51;4.37;;;2.77;;
7142;SDS011;3613;48.902;9.204;2023-04-03T00:16:17;3.20;;;2.70;;
7142;SDS011;3613;48.902;9.204;2023-04-03T00:18:43;3.67;;;2.80;;
7142;SDS011;3613;48.902;9.204;2023-04-03T00:21:12;3.67;;;3.00;;
7142;SDS011;3613;48.902;9.204;2023-04-03T00:23:40;3.77;;;2.93;;
7142;SDS011;3613;48.902;9.204;2023-04-03T00:26:06;4.77;;;3.00;;
7142;SDS011;3613;48.902;9.204;2023-04-03T00:28:32;3.33;;;3.00;;
7142;SDS011;3613;48.902;9.204;2023-04-03T00:30:57;4.53;;;3.07;;
7142;SDS011;3613;48.902;9.204;2023-04-03T00:33:24;4.00;;;2.80;;
7142;SDS011;3613;48.902;9.204;2023-04-03T00:35:50;4.60;;;2.97;;
7142;SDS011;3613;48.902;9.204;2023-04-03T00:38:15;4.87;;;2.77;;
7142;SDS011;3613;48.902;9.204;2023-04-03T00:40:45;5.03;;;2.87;;
7142;SDS011;3613;48.902;9.204;2023-04-03T00:45:41;4.33;;;3.00;;
7142;SDS011;3613;48.902;9.204;2023-04-03T00:48:10;3.27;;;2.97;;
7142;SDS011;3613;48.902;9.204;2023-04-03T00:50:41;5.20;;;2.93;;
7142;SDS011;3613;48.902;9.204;2023-04-03T00:53:08;5.37;;;2.50;;
7142;SDS011;3613;48.902;9.204;2023-04-03T00:55:39;3.30;;;2.70;;
7142;SDS011;3613;48.902;9.204;2023-04-03T00:58:06;4.33;;;2.77;;
7142;SDS011;3613;48.902;9.204;2023-04-03T01:00:33;6.53;;;3.33;;
7142;SDS011;3613;48.902;9.204;2023-04-03T01:03:04;4.23;;;2.87;;
7142;SDS011;3613;48.902;9.204;2023-04-03T01:05:30;2.67;;;2.40;;
7142;SDS011;3613;48.902;9.204;2023-04-03T01:07:56;3.60;;;2.60;;
7142;SDS011;3613;48.902;9.204;2023-04-03T01:10:22;4.80;;;2.77;;
7142;SDS011;3613;48.902;9.204;2023-04-03T01:12:50;3.03;;;2.60;;
7142;SDS011;3613;48.902;9.204;2023-04-03T01:15:20;4.47;;;2.67;;
7142;SDS011;3613;48.902;9.204;2023-04-03T01:17:52;5.70;;;3.10;;
7142;SDS011;3613;48.902;9.204;2023-04-03T01:25:40;6.20;;;2.83;;
7142;SDS011;3613;48.902;9.204;2023-04-03T01:28:22;2.80;;;2.50;;
7142;SDS011;3613;48.902;9.204;2023-04-03T01:31:02;3.00;;;2.43;;
7142;SDS011;3613;48.902;9.204;2023-04-03T01:33:47;3.27;;;2.63;;
7142;SDS011;3613;48.902;9.204;2023-04-03T01:36:14;3.13;;;2.83;;
7142;SDS011;3613;48.902;9.204;2023-04-03T01:38:51;5.37;;;3.00;;
7142;SDS011;3613;48.902;9.204;2023-04-03T01:41:18;2.83;;;2.57;;
7142;SDS011;3613;48.902;9.204;2023-04-03T01:43:46;4.07;;;3.03;;
7142;SDS011;3613;48.902;9.204;2023-04-03T01:46:12;3.30;;;2.50;;
7142;SDS011;3613;48.902;9.204;2023-04-03T01:48:38;4.30;;;2.87;;
7142;SDS011;3613;48.902;9.204;2023-04-03T01:51:09;3.97;;;3.13;;
7142;SDS011;3613;48.902;9.204;2023-04-03T01:53:35;4.23;;;3.03;;
7142;SDS011;3613;48.902;9.204;2023-04-03T01:56:00;4.93;;;3.20;;
7142;SDS011;3613;48.902;9.204;2023-04-03T01:58:26;3.83;;;3.23;;
7142;SDS011;3613;48.902;9.204;2023-04-03T02:00:52;3.73;;;3.13;;
7142;SDS011;3613;48.902;9.204;2023-04-03T02:03:19;6.10;;;2.90;;
7142;SDS011;3613;48.902;9.204;2023-04-03T02:05:45;5.53;;;3.63;;
7142;SDS011;3613;48.902;9.204;2023-04-03T02:08:11;4.43;;;3.13;;
7142;SDS011;3613;48.902;9.204;2023-04-03T02:10:36;3.30;;;3.00;;
7142;SDS011;3613;48.902;9.204;2023-04-03T02:13:02;4.27;;;3.07;;
7142;SDS011;3613;48.902;9.204;2023-04-03T02:15:30;3.93;;;2.87;;
7142;SDS011;3613;48.902;9.204;2023-04-03T02:17:55;3.70;;;3.10;;
7142;SDS011;3613;48.902;9.204;2023-04-03T02:20:21;3.37;;;2.83;;
7142;SDS011;3613;48.902;9.204;2023-04-03T02:22:50;3.77;;;2.83;;
7142;SDS011;3613;48.902;9.204;2023-04-03T02:25:16;4.03;;;2.77;;
7142;SDS011;3613;48.902;9.204;2023-04-03T02:27:42;3.33;;;2.80;;
7142;SDS011;3613;48.902;9.204;2023-04-03T02:30:08;4.03;;;2.40;;
7142;SDS011;3613;48.902;9.204;2023-04-03T02:32:35;3.20;;;2.57;;
7142;SDS011;3613;48.902;9.204;2023-04-03T02:35:01;3.57;;;2.67;;
7142;SDS011;3613;48.902;9.204;2023-04-03T02:37:27;3.27;;;2.57;;
7142;SDS011;3613;48.902;9.204;2023-04-03T02:39:52;4.03;;;2.60;;
7142;SDS011;3613;48.902;9.204;2023-04-03T02:42:18;3.17;;;2.57;;
7142;SDS011;3613;48.902;9.204;2023-04-03T02:44:44;3.60;;;2.60;;
7142;SDS011;3613;48.902;9.204;2023-04-03T02:47:10;3.37;;;3.00;;
7142;SDS011;3613;48.902;9.204;2023-04-03T02:49:38;2.60;;;2.40;;
7142;SDS011;3613;48.902;9.204;2023-04-03T02:52:03;3.67;;;2.60;;
7142;SDS011;3613;48.902;9.204;2023-04-03T02:54:29;4.37;;;2.67;;
7142;SDS011;3613;48.902;9.204;2023-04-03T02:56:58;3.07;;;2.27;;
7142;SDS011;3613;48.902;9.204;2023-04-03T02:59:23;2.80;;;2.53;;
7142;SDS011;3613;48.902;9.204;2023-04-03T03:01:49;3.10;;;2.57;;
7142;SDS011;3613;48.902;9.204;2023-04-03T03:04:15;3.20;;;2.90;;
7142;SDS011;3613;48.902;9.204;2023-04-03T03:06:46;2.97;;;2.47;;
7142;SDS011;3613;48.902;9.204;2023-04-03T03:09:12;3.43;;;2.60;;
7142;SDS011;3613;48.902;9.204;2023-04-03T03:11:38;4.67;;;2.73;;
7142;SDS011;3613;48.902;9.204;2023-04-03T03:14:04;4.17;;;2.50;;
7142;SDS011;3613;48.902;9.204;2023-04-03T03:16:30;4.13;;;2.80;;
7142;SDS011;3613;48.902;9.204;2023-04-03T03:18:56;3.13;;;2.70;;
7142;SDS011;3613;48.902;9.204;2023-04-03T03:21:22;2.87;;;2.60;;
7142;SDS011;3613;48.902;9.204;2023-04-03T03:23:48;2.53;;;2.33;;
7142;SDS011;3613;48.902;9.204;2023-04-03T03:26:14;2.63;;;2.27;;
7142;SDS011;3613;48.902;9.204;2023-04-03T03:28:45;2.47;;;2.27;;
7142;SDS011;3613;48.902;9.204;2023-04-03T03:31:11;3.23;;;2.30;;
7142;SDS011;3613;48.902;9.204;2023-04-03T03:33:37;3.27;;;2.40;;
7142;SDS011;3613;48.902;9.204;2023-04-03T03:36:03;3.20;;;2.47;;
7142;SDS011;3613;48.902;9.204;2023-04-03T03:38:29;4.10;;;2.53;;
7142;SDS011;3613;48.902;9.204;2023-04-03T03:40:57;3.57;;;2.53;;
7142;SDS011;3613;48.902;9.204;2023-04-03T03:43:23;2.63;;;2.43;;
7142;SDS011;3613;48.902;9.204;2023-04-03T03:45:52;3.70;;;2.70;;
7142;SDS011;3613;48.902;9.204;2023-04-03T03:48:18;3.07;;;2.80;;
7142;SDS011;3613;48.902;9.204;2023-04-03T03:50:45;2.93;;;2.53;;
7142;SDS011;3613;48.902;9.204;2023-04-03T03:53:13;2.50;;;2.30;;
7142;SDS011;3613;48.902;9.204;2023-04-03T03:55:39;4.60;;;2.63;;
7142;SDS011;3613;48.902;9.204;2023-04-03T03:58:06;3.90;;;2.70;;
7142;SDS011;3613;48.902;9.204;2023-04-03T04:00:32;5.80;;;2.93;;
7142;SDS011;3613;48.902;9.204;2023-04-03T04:02:58;3.10;;;2.70;;
7142;SDS011;3613;48.902;9.204;2023-04-03T04:05:24;4.90;;;3.10;;
7142;SDS011;3613;48.902;9.204;2023-04-03T04:07:52;2.47;;;2.27;;
7142;SDS011;3613;48.902;9.204;2023-04-03T04:10:20;4.83;;;2.90;;
7142;SDS011;3613;48.902;9.204;2023-04-03T04:12:46;3.37;;;2.87;;
7142;SDS011;3613;48.902;9.204;2023-04-03T04:15:16;3.10;;;2.60;;
7142;SDS011;3613;48.902;9.204;2023-04-03T04:17:41;3.53;;;2.73;;
7142;SDS011;3613;48.902;9.204;2023-04-03T04:20:07;3.23;;;2.93;;
7142;SDS011;3613;48.902;9.204;2023-04-03T04:22:33;2.70;;;2.37;;
7142;SDS011;3613;48.902;9.204;2023-04-03T04:25:02;3.70;;;2.80;;
7142;SDS011;3613;48.902;9.204;2023-04-03T04:27:30;5.50;;;2.50;;
7142;SDS011;3613;48.902;9.204;2023-04-03T04:29:55;3.47;;;2.40;;
7142;SDS011;3613;48.902;9.204;2023-04-03T04:32:25;4.70;;;2.80;;
7142;SDS011;3613;48.902;9.204;2023-04-03T04:34:53;3.30;;;2.90;;
7142;SDS011;3613;48.902;9.204;2023-04-03T04:37:19;2.60;;;2.40;;
7142;SDS011;3613;48.902;9.204;2023-04-03T04:39:47;3.53;;;2.97;;
7142;SDS011;3613;48.902;9.204;2023-04-03T04:42:15;3.57;;;2.90;;
7142;SDS011;3613;48.902;9.204;2023-04-03T04:44:41;3.37;;;2.80;;
7142;SDS011;3613;48.902;9.204;2023-04-03T04:47:07;3.97;;;2.90;;
7142;SDS011;3613;48.902;9.204;2023-04-03T04:49:33;4.73;;;2.63;;
7142;SDS011;3613;48.902;9.204;2023-04-03T04:52:02;3.23;;;2.87;;
7142;SDS011;3613;48.902;9.204;2023-04-03T04:54:27;4.40;;;2.90;;
7142;SDS011;3613;48.902;9.204;2023-04-03T04:56:53;3.70;;;3.40;;
7142;SDS011;3613;48.902;9.204;2023-04-03T04:59:19;3.50;;;2.70;;
7142;SDS011;3613;48.902;9.204;2023-04-03T05:01:47;3.50;;;2.80;;
7142;SDS011;3613;48.902;9.204;2023-04-03T05:04:13;3.60;;;2.77;;
7142;SDS011;3613;48.902;9.204;2023-04-03T05:06:40;3.30;;;2.40;;
7142;SDS011;3613;48.902;9.204;2023-04-03T05:09:06;3.07;;;2.60;;
7142;SDS011;3613;48.902;9.204;2023-04-03T05:11:34;3.40;;;2.70;;
7142;SDS011;3613;48.902;9.204;2023-04-03T05:14:00;4.07;;;3.00;;
7142;SDS011;3613;48.902;9.204;2023-04-03T05:16:32;4.37;;;2.87;;
7142;SDS011;3613;48.902;9.204;2023-04-03T05:18:58;3.50;;;2.90;;
7142;SDS011;3613;48.902;9.204;2023-04-03T05:21:29;3.20;;;2.07;;
7142;SDS011;3613;48.902;9.204;2023-04-03T05:23:57;4.73;;;2.93;;
7142;SDS011;3613;48.902;9.204;2023-04-03T05:26:24;3.83;;;2.93;;
7142;SDS011;3613;48.902;9.204;2023-04-03T05:28:51;3.40;;;3.10;;
7142;SDS011;3613;48.902;9.204;2023-04-03T05:31:17;3.83;;;2.90;;
7142;SDS011;3613;48.902;9.204;2023-04-03T05:33:45;5.67;;;2.60;;
7142;SDS011;3613;48.902;9.204;2023-04-03T05:36:11;3.93;;;2.83;;
7142;SDS011;3613;48.902;9.204;2023-04-03T05:38:37;3.80;;;3.07;;
7142;SDS011;3613;48.902;9.204;2023-04-03T05:41:04;3.90;;;3.10;;
7142;SDS011;3613;48.902;9.204;2023-04-03T05:43:30;4.53;;;2.97;;
7142;SDS011;3613;48.902;9.204;2023-04-03T05:45:56;3.60;;;2.57;;
7142;SDS011;3613;48.902;9.204;2023-04-03T05:48:22;3.17;;;2.83;;
7142;SDS011;3613;48.902;9.204;2023-04-03T05:50:50;6.27;;;3.00;;
7142;SDS011;3613;48.902;9.204;2023-04-03T05:53:24;3.87;;;3.43;;
7142;SDS011;3613;48.902;9.204;2023-04-03T05:55:53;3.60;;;3.07;;
7142;SDS011;3613;48.902;9.204;2023-04-03T05:58:19;5.03;;;2.70;;
7142;SDS011;3613;48.902;9.204;2023-04-03T06:00:45;3.20;;;2.67;;
7142;SDS011;3613;48.902;9.204;2023-04-03T06:03:10;3.17;;;2.87;;
7142;SDS011;3613;48.902;9.204;2023-04-03T06:05:36;4.63;;;3.23;;
7142;SDS011;3613;48.902;9.204;2023-04-03T06:08:02;5.50;;;2.97;;
7142;SDS011;3613;48.902;9.204;2023-04-03T06:10:28;3.83;;;3.03;;
7142;SDS011;3613;48.902;9.204;2023-04-03T06:12:54;4.37;;;3.07;;
7142;SDS011;3613;48.902;9.204;2023-04-03T06:15:22;3.17;;;2.80;;
7142;SDS011;3613;48.902;9.204;2023-04-03T06:17:48;5.00;;;2.80;;
7142;SDS011;3613;48.902;9.204;2023-04-03T06:20:14;3.33;;;2.70;;
7142;SDS011;3613;48.902;9.204;2023-04-03T06:22:41;3.93;;;2.90;;
7142;SDS011;3613;48.902;9.204;2023-04-03T06:25:08;4.03;;;3.07;;
7142;SDS011;3613;48.902;9.204;2023-04-03T06:27:37;3.10;;;2.80;;
7142;SDS011;3613;48.902;9.204;2023-04-03T06:30:03;3.63;;;2.83;;
7142;SDS011;3613;48.902;9.204;2023-04-03T06:32:31;3.53;;;2.63;;
7142;SDS011;3613;48.902;9.204;2023-04-03T06:34:57;4.10;;;3.10;;
7142;SDS011;3613;48.902;9.204;2023-04-03T06:37:27;5.03;;;3.20;;
7142;SDS011;3613;48.902;9.204;2023-04-03T06:39:55;7.60;;;4.03;;
7142;SDS011;3613;48.902;9.204;2023-04-03T06:42:21;5.50;;;3.23;;
7142;SDS011;3613;48.902;9.204;2023-04-03T06:44:48;4.57;;;2.80;;
7142;SDS011;3613;48.902;9.204;2023-04-03T06:47:16;3.63;;;2.63;;
7142;SDS011;3613;48.902;9.204;2023-04-03T06:49:44;4.17;;;3.00;;
7142;SDS011;3613;48.902;9.204;2023-04-03T06:52:10;5.20;;;3.00;;
7142;SDS011;3613;48.902;9.204;2023-04-03T06:54:37;6.37;;;2.90;;
7142;SDS011;3613;48.902;9.204;2023-04-03T06:57:03;5.50;;;3.37;;
7142;SDS011;3613;48.902;9.204;2023-04-03T06:59:31;4.23;;;2.67;;
7142;SDS011;3613;48.902;9.204;2023-04-03T07:01:57;5.37;;;2.70;;
7142;SDS011;3613;48.902;9.204;2023-04-03T07:04:24;6.80;;;3.30;;
7142;SDS011;3613;48.902;9.204;2023-04-03T07:06:50;5.50;;;3.33;;
7142;SDS011;3613;48.902;9.204;2023-04-03T07:09:17;5.13;;;3.07;;
7142;SDS011;3613;48.902;9.204;2023-04-03T07:11:43;4.57;;;2.83;;
7142;SDS011;3613;48.902;9.204;2023-04-03T07:14:09;5.10;;;3.00;;
7142;SDS011;3613;48.902;9.204;2023-04-03T07:16:37;4.37;;;2.60;;
7142;SDS011;3613;48.902;9.204;2023-04-03T07:19:03;6.43;;;2.90;;
7142;SDS011;3613;48.902;9.204;2023-04-03T07:21:28;6.03;;;3.03;;
7142;SDS011;3613;48.902;9.204;2023-04-03T07:23:54;3.63;;;2.83;;
7142;SDS011;3613;48.902;9.204;2023-04-03T07:26:20;4.23;;;3.00;;
7142;SDS011;3613;48.902;9.204;2023-04-03T07:28:47;3.00;;;2.70;;
7142;SDS011;3613;48.902;9.204;2023-04-03T07:31:16;3.10;;;2.40;;
7142;SDS011;3613;48.902;9.204;2023-04-03T07:33:44;5.77;;;4.07;;
7142;SDS011;3613;48.902;9.204;2023-04-03T07:36:11;3.90;;;3.00;;
7142;SDS011;3613;48.902;9.204;2023-04-03T07:38:43;5.10;;;2.33;;
7142;SDS011;3613;48.902;9.204;2023-04-03T07:41:11;5.40;;;3.30;;
7142;SDS011;3613;48.902;9.204;2023-04-03T07:43:38;3.50;;;3.20;;
7142;SDS011;3613;48.902;9.204;2023-04-03T07:46:05;4.67;;;2.90;;
7142;SDS011;3613;48.902;9.204;2023-04-03T07:48:31;6.13;;;2.90;;
7142;SDS011;3613;48.902;9.204;2023-04-03T07:51:00;3.13;;;2.83;;
7142;SDS011;3613;48.902;9.204;2023-04-03T07:53:27;5.23;;;3.13;;
7142;SDS011;3613;48.902;9.204;2023-04-03T07:55:58;2.70;;;2.30;;
7142;SDS011;3613;48.902;9.204;2023-04-03T07:58:27;3.20;;;2.67;;
7142;SDS011;3613;48.902;9.204;2023-04-03T08:00:52;6.70;;;3.03;;
7142;SDS011;3613;48.902;9.204;2023-04-03T08:03:18;5.20;;;2.80;;
7142;SDS011;3613;48.902;9.204;2023-04-03T08:05:45;4.73;;;2.43;;
7142;SDS011;3613;48.902;9.204;2023-04-03T08:08:14;3.30;;;2.87;;
7142;SDS011;3613;48.902;9.204;2023-04-03T08:10:42;7.00;;;3.33;;
7142;SDS011;3613;48.902;9.204;2023-04-03T08:13:08;4.63;;;3.03;;
7142;SDS011;3613;48.902;9.204;2023-04-03T08:15:35;3.90;;;2.63;;
7142;SDS011;3613;48.902;9.204;2023-04-03T08:18:01;4.47;;;2.67;;
7142;SDS011;3613;48.902;9.204;2023-04-03T08:20:27;3.07;;;2.60;;
7142;SDS011;3613;48.902;9.204;2023-04-03T08:22:53;6.90;;;2.80;;
7142;SDS011;3613;48.902;9.204;2023-04-03T08:25:19;5.10;;;2.80;;
7142;SDS011;3613;48.902;9.204;2023-04-03T08:27:46;5.43;;;2.80;;
7142;SDS011;3613;48.902;9.204;2023-04-03T08:30:14;3.63;;;2.73;;
7142;SDS011;3613;48.902;9.204;2023-04-03T08:32:42;5.53;;;3.00;;
7142;SDS011;3613;48.902;9.204;2023-04-03T08:35:10;6.13;;;3.33;;
7142;SDS011;3613;48.902;9.204;2023-04-03T08:37:39;6.57;;;3.70;;
7142;SDS011;3613;48.902;9.204;2023-04-03T08:40:06;7.47;;;3.43;;
7142;SDS011;3613;48.902;9.204;2023-04-03T08:48:21;4.83;;;3.00;;
7142;SDS011;3613;48.902;9.204;2023-04-03T08:51:15;3.70;;;2.30;;
7142;SDS011;3613;48.902;9.204;2023-04-03T08:53:45;5.27;;;3.00;;
7142;SDS011;3613;48.902;9.204;2023-04-03T08:56:34;8.17;;;3.07;;
7142;SDS011;3613;48.902;9.204;2023-04-03T08:59:01;5.17;;;2.90;;
7142;SDS011;3613;48.902;9.204;2023-04-03T09:01:36;6.03;;;3.00;;
7142;SDS011;3613;48.902;9.204;2023-04-03T09:04:09;7.03;;;2.83;;
7142;SDS011;3613;48.902;9.204;2023-04-03T09:06:37;4.93;;;2.87;;
7142;SDS011;3613;48.902;9.204;2023-04-03T09:14:11;2.97;;;2.60;;
7142;SDS011;3613;48.902;9.204;2023-04-03T09:16:56;5.97;;;3.20;;
7142;SDS011;3613;48.902;9.204;2023-04-03T09:22:16;3.07;;;2.37;;
7142;SDS011;3613;48.902;9.204;2023-04-03T09:25:05;2.70;;;2.50;;
7142;SDS011;3613;48.902;9.204;2023-04-03T09:27:46;5.67;;;2.97;;
7142;SDS011;3613;48.902;9.204;2023-04-03T09:30:16;8.23;;;2.50;;
7142;SDS011;3613;48.902;9.204;2023-04-03T09:32:45;3.63;;;2.47;;
7142;SDS011;3613;48.902;9.204;2023-04-03T09:35:25;4.73;;;2.50;;
7142;SDS011;3613;48.902;9.204;2023-04-03T09:37:54;2.80;;;2.30;;
7142;SDS011;3613;48.902;9.204;2023-04-03T09:42:58;3.33;;;2.13;;
7142;SDS011;3613;48.902;9.204;2023-04-03T09:53:26;3.87;;;2.30;;
7142;SDS011;3613;48.902;9.204;2023-04-03T09:55:52;3.53;;;2.53;;
7142;SDS011;3613;48.902;9.204;2023-04-03T09:58:25;2.17;;;1.90;;
7142;SDS011;3613;48.902;9.204;2023-04-03T10:00:54;3.20;;;2.00;;
7142;SDS011;3613;48.902;9.204;2023-04-03T10:03:44;2.70;;;2.37;;
7142;SDS011;3613;48.902;9.204;2023-04-03T10:06:23;6.17;;;2.47;;
7142;SDS011;3613;48.902;9.204;2023-04-03T10:08:59;2.43;;;1.93;;
7142;SDS011;3613;48.902;9.204;2023-04-03T10:11:30;4.13;;;2.00;;
7142;SDS011;3613;48.902;9.204;2023-04-03T10:13:57;2.10;;;1.90;;
7142;SDS011;3613;48.902;9.204;2023-04-03T10:16:46;2.00;;;1.80;;
7142;SDS011;3613;48.902;9.204;2023-04-03T10:22:46;3.57;;;2.30;;
7142;SDS011;3613;48.902;9.204;2023-04-03T10:27:53;3.10;;;2.10;;
7142;SDS011;3613;48.902;9.204;2023-04-03T10:38:54;1.80;;;1.70;;
7142;SDS011;3613;48.902;9.204;2023-04-03T10:50:32;2.57;;;2.07;;
7142;SDS011;3613;48.902;9.204;2023-04-03T10:56:19;3.10;;;2.10;;
7142;SDS011;3613;48.902;9.204;2023-04-03T10:59:06;1.80;;;1.70;;
7142;SDS011;3613;48.902;9.204;2023-04-03T11:01:34;1.70;;;1.60;;
7142;SDS011;3613;48.902;9.204;2023-04-03T11:04:03;2.43;;;1.73;;
7142;SDS011;3613;48.902;9.204;2023-04-03T11:06:38;2.40;;;1.90;;
7142;SDS011;3613;48.902;9.204;2023-04-03T11:09:21;1.90;;;1.67;;
7142;SDS011;3613;48.902;9.204;2023-04-03T11:11:59;3.80;;;1.70;;
7142;SDS011;3613;48.902;9.204;2023-04-03T11:14:46;2.30;;;2.10;;
7142;SDS011;3613;48.902;9.204;2023-04-03T11:22:51;2.20;;;2.00;;
7142;SDS011;3613;48.902;9.204;2023-04-03T11:25:24;2.73;;;2.17;;
7142;SDS011;3613;48.902;9.204;2023-04-03T11:35:29;4.83;;;2.47;;
7142;SDS011;3613;48.902;9.204;2023-04-03T11:37:56;4.13;;;2.00;;
7142;SDS011;3613;48.902;9.204;2023-04-03T11:40:26;3.77;;;2.00;;
7142;SDS011;3613;48.902;9.204;2023-04-03T11:43:15;2.43;;;2.23;;
7142;SDS011;3613;48.902;9.204;2023-04-03T11:50:47;3.57;;;2.27;;
7142;SDS011;3613;48.902;9.204;2023-04-03T11:58:17;2.23;;;2.03;;
7142;SDS011;3613;48.902;9.204;2023-04-03T12:05:49;1.87;;;1.77;;
7142;SDS011;3613;48.902;9.204;2023-04-03T12:13:39;3.07;;;2.03;;
7142;SDS011;3613;48.902;9.204;2023-04-03T12:16:30;2.50;;;2.13;;
7142;SDS011;3613;48.902;9.204;2023-04-03T12:19:34;4.03;;;2.43;;
7142;SDS011;3613;48.902;9.204;2023-04-03T12:27:32;4.60;;;2.40;;
7142;SDS011;3613;48.902;9.204;2023-04-03T12:29:39;3.47;;;2.20;;
7142;SDS011;3613;48.902;9.204;2023-04-03T12:35:17;4.87;;;2.43;;
7142;SDS011;3613;48.902;9.204;2023-04-03T12:45:52;4.13;;;2.00;;
7142;SDS011;3613;48.902;9.204;2023-04-03T12:48:50;3.27;;;1.90;;
7142;SDS011;3613;48.902;9.204;2023-04-03T12:54:39;2.63;;;2.20;;
7142;SDS011;3613;48.902;9.204;2023-04-03T12:57:35;2.33;;;1.93;;
7142;SDS011;3613;48.902;9.204;2023-04-03T12:59:54;4.17;;;2.40;;
7142;SDS011;3613;48.902;9.204;2023-04-03T13:04:48;4.13;;;2.60;;
7142;SDS011;3613;48.902;9.204;2023-04-03T13:07:23;4.03;;;2.47;;
7142;SDS011;3613;48.902;9.204;2023-04-03T13:10:09;3.30;;;2.10;;
7142;SDS011;3613;48.902;9.204;2023-04-03T13:15:15;4.00;;;2.23;;
7142;SDS011;3613;48.902;9.204;2023-04-03T13:17:50;3.43;;;2.20;;
7142;SDS011;3613;48.902;9.204;2023-04-03T13:22:57;3.37;;;2.13;;
7142;SDS011;3613;48.902;9.204;2023-04-03T13:25:28;2.67;;;2.27;;
7142;SDS011;3613;48.902;9.204;2023-04-03T13:27:59;4.27;;;2.50;;
7142;SDS011;3613;48.902;9.204;2023-04-03T13:30:32;2.57;;;2.37;;
7142;SDS011;3613;48.902;9.204;2023-04-03T13:33:05;2.97;;;2.10;;
7142;SDS011;3613;48.902;9.204;2023-04-03T13:35:43;3.40;;;2.30;;
7142;SDS011;3613;48.902;9.204;2023-04-03T13:43:33;2.67;;;2.17;;
7142;SDS011;3613;48.902;9.204;2023-04-03T13:48:39;3.33;;;1.83;;
7142;SDS011;3613;48.902;9.204;2023-04-03T13:53:59;2.57;;;2.33;;
7142;SDS011;3613;48.902;9.204;2023-04-03T14:04:27;2.30;;;1.90;;
7142;SDS011;3613;48.902;9.204;2023-04-03T14:07:08;3.17;;;2.17;;
7142;SDS011;3613;48.902;9.204;2023-04-03T14:09:37;2.37;;;2.07;;
7142;SDS011;3613;48.902;9.204;2023-04-03T14:12:11;1.90;;;1.70;;
7142;SDS011;3613;48.902;9.204;2023-04-03T14:14:43;3.83;;;2.30;;
7142;SDS011;3613;48.902;9.204;2023-04-03T14:17:13;5.53;;;2.50;;
7142;SDS011;3613;48.902;9.204;2023-04-03T14:19:44;4.70;;;2.13;;
7142;SDS011;3613;48.902;9.204;2023-04-03T14:22:24;2.63;;;2.27;;
7142;SDS011;3613;48.902;9.204;2023-04-03T14:24:54;3.40;;;2.03;;
7142;SDS011;3613;48.902;9.204;2023-04-03T14:29:51;2.80;;;2.30;;
7142;SDS011;3613;48.902;9.204;2023-04-03T14:32:19;4.10;;;2.07;;
7142;SDS011;3613;48.902;9.204;2023-04-03T14:34:46;3.67;;;2.27;;
7142;SDS011;3613;48.902;9.204;2023-04-03T14:37:14;2.43;;;1.97;;
7142;SDS011;3613;48.902;9.204;2023-04-03T14:39:44;3.33;;;2.57;;
7142;SDS011;3613;48.902;9.204;2023-04-03T14:42:14;2.70;;;1.87;;
7142;SDS011;3613;48.902;9.204;2023-04-03T14:44:42;4.83;;;2.30;;
7142;SDS011;3613;48.902;9.204;2023-04-03T14:47:12;4.00;;;2.50;;
7142;SDS011;3613;48.902;9.204;2023-04-03T14:49:41;2.27;;;2.07;;
7142;SDS011;3613;48.902;9.204;2023-04-03T14:55:14;3.37;;;2.33;;
7142;SDS011;3613;48.902;9.204;2023-04-03T14:57:41;3.50;;;2.00;;
7142;SDS011;3613;48.902;9.204;2023-04-03T15:00:12;5.17;;;3.00;;
7142;SDS011;3613;48.902;9.204;2023-04-03T15:02:40;3.03;;;2.20;;
7142;SDS011;3613;48.902;9.204;2023-04-03T15:05:07;3.23;;;2.37;;
7142;SDS011;3613;48.902;9.204;2023-04-03T15:07:38;2.97;;;2.13;;
7142;SDS011;3613;48.902;9.204;2023-04-03T15:12:49;2.87;;;2.30;;
7142;SDS011;3613;48.902;9.204;2023-04-03T15:15:17;6.83;;;2.10;;
7142;SDS011;3613;48.902;9.204;2023-04-03T15:17:46;3.03;;;2.20;;
7142;SDS011;3613;48.902;9.204;2023-04-03T15:20:16;4.07;;;2.37;;
7142;SDS011;3613;48.902;9.204;2023-04-03T15:22:46;2.70;;;2.00;;
7142;SDS011;3613;48.902;9.204;2023-04-03T15:25:12;3.60;;;2.73;;
7142;SDS011;3613;48.902;9.204;2023-04-03T15:27:38;2.40;;;1.97;;
7142;SDS011;3613;48.902;9.204;2023-04-03T15:30:05;3.83;;;2.43;;
7142;SDS011;3613;48.902;9.204;2023-04-03T15:32:32;2.73;;;2.20;;
7142;SDS011;3613;48.902;9.204;2023-04-03T15:35:00;2.53;;;2.20;;
7142;SDS011;3613;48.902;9.204;2023-04-03T15:37:26;2.20;;;2.00;;
7142;SDS011;3613;48.902;9.204;2023-04-03T15:39:52;5.20;;;2.40;;
7142;SDS011;3613;48.902;9.204;2023-04-03T15:42:20;2.30;;;2.10;;
7142;SDS011;3613;48.902;9.204;2023-04-03T15:44:45;2.63;;;2.43;;
7142;SDS011;3613;48.902;9.204;2023-04-03T15:47:12;3.50;;;1.90;;
7142;SDS011;3613;48.902;9.204;2023-04-03T15:49:38;2.67;;;1.83;;
7142;SDS011;3613;48.902;9.204;2023-04-03T15:52:04;4.13;;;2.00;;
7142;SDS011;3613;48.902;9.204;2023-04-03T15:54:30;2.67;;;2.33;;
7142;SDS011;3613;48.902;9.204;2023-04-03T15:56:56;3.93;;;2.50;;
7142;SDS011;3613;48.902;9.204;2023-04-03T15:59:22;2.63;;;2.00;;
7142;SDS011;3613;48.902;9.204;2023-04-03T16:01:48;3.90;;;2.00;;
7142;SDS011;3613;48.902;9.204;2023-04-03T16:04:17;4.10;;;2.60;;
7142;SDS011;3613;48.902;9.204;2023-04-03T16:06:43;4.70;;;2.10;;
7142;SDS011;3613;48.902;9.204;2023-04-03T16:09:09;3.50;;;2.27;;
7142;SDS011;3613;48.902;9.204;2023-04-03T16:11:36;2.33;;;2.10;;
7142;SDS011;3613;48.902;9.204;2023-04-03T16:14:09;3.00;;;2.30;;
7142;SDS011;3613;48.902;9.204;2023-04-03T16:16:36;4.17;;;2.20;;
7142;SDS011;3613;48.902;9.204;2023-04-03T16:19:02;3.13;;;2.13;;
7142;SDS011;3613;48.902;9.204;2023-04-03T16:21:31;3.60;;;2.60;;
7142;SDS011;3613;48.902;9.204;2023-04-03T16:23:58;2.03;;;1.87;;
7142;SDS011;3613;48.902;9.204;2023-04-03T16:26:26;3.80;;;2.03;;
7142;SDS011;3613;48.902;9.204;2023-04-03T16:28:52;2.57;;;2.27;;
7142;SDS011;3613;48.902;9.204;2023-04-03T16:31:18;2.80;;;2.23;;
7142;SDS011;3613;48.902;9.204;2023-04-03T16:33:47;3.57;;;2.50;;
7142;SDS011;3613;48.902;9.204;2023-04-03T16:36:13;3.53;;;2.23;;
7142;SDS011;3613;48.902;9.204;2023-04-03T16:38:41;2.90;;;2.40;;
7142;SDS011;3613;48.902;9.204;2023-04-03T16:41:06;3.00;;;2.27;;
7142;SDS011;3613;48.902;9.204;2023-04-03T16:43:33;3.53;;;2.70;;
7142;SDS011;3613;48.902;9.204;2023-04-03T16:46:00;3.17;;;2.30;;
7142;SDS011;3613;48.902;9.204;2023-04-03T16:48:27;2.70;;;2.30;;
7142;SDS011;3613;48.902;9.204;2023-04-03T16:50:53;3.37;;;2.50;;
7142;SDS011;3613;48.902;9.204;2023-04-03T16:53:23;3.47;;;2.40;;
7142;SDS011;3613;48.902;9.204;2023-04-03T16:55:49;3.17;;;2.57;;
7142;SDS011;3613;48.902;9.204;2023-04-03T16:58:18;2.53;;;2.30;;
7142;SDS011;3613;48.902;9.204;2023-04-03T17:00:44;3.37;;;2.30;;
7142;SDS011;3613;48.902;9.204;2023-04-03T17:03:12;3.80;;;2.37;;
7142;SDS011;3613;48.902;9.204;2023-04-03T17:05:38;3.70;;;2.17;;
7142;SDS011;3613;48.902;9.204;2023-04-03T17:08:04;3.83;;;2.77;;
7142;SDS011;3613;48.902;9.204;2023-04-03T17:10:30;2.83;;;2.47;;
7142;SDS011;3613;48.902;9.204;2023-04-03T17:12:56;3.57;;;2.63;;
7142;SDS011;3613;48.902;9.204;2023-04-03T17:15:22;3.53;;;2.10;;
7142;SDS011;3613;48.902;9.204;2023-04-03T17:17:49;3.53;;;2.70;;
7142;SDS011;3613;48.902;9.204;2023-04-03T17:20:19;3.33;;;2.30;;
7142;SDS011;3613;48.902;9.204;2023-04-03T17:22:45;3.13;;;2.57;;
7142;SDS011;3613;48.902;9.204;2023-04-03T17:25:11;3.53;;;2.27;;
7142;SDS011;3613;48.902;9.204;2023-04-03T17:27:38;2.90;;;2.70;;
7142;SDS011;3613;48.902;9.204;2023-04-03T17:30:04;3.63;;;2.20;;
7142;SDS011;3613;48.902;9.204;2023-04-03T17:32:32;5.70;;;2.50;;
7142;SDS011;3613;48.902;9.204;2023-04-03T17:34:58;4.57;;;2.97;;
7142;SDS011;3613;48.902;9.204;2023-04-03T17:37:24;2.87;;;2.40;;
7142;SDS011;3613;48.902;9.204;2023-04-03T17:39:50;3.40;;;2.73;;
7142;SDS011;3613;48.902;9.204;2023-04-03T17:42:15;4.90;;;2.53;;
7142;SDS011;3613;48.902;9.204;2023-04-03T17:44:44;3.80;;;2.30;;
7142;SDS011;3613;48.902;9.204;2023-04-03T17:47:09;4.70;;;2.60;;
7142;SDS011;3613;48.902;9.204;2023-04-03T17:49:35;3.67;;;2.70;;
7142;SDS011;3613;48.902;9.204;2023-04-03T17:52:01;3.80;;;2.47;;